Terminal Aerodrome Forecast
Issued by NWS

Home | Current Version | Previous Version | Text Only | Print | Product List | Glossary On
Versions: 1 2 3 4 5 6 7 8 9 10 11 12 13 14 15 16 17 18 19 20 21 22 23 24 25 26 27 28 29 30 31 32
000
FTUS42 KGSP 310900 AAA
TAFHKY
TAF AMD
KHKY 310900Z 3109/0106 19003KT 4SM -SHRA BR BKN040
      TEMPO 3109/3113 2SM BR BKN012
     FM311300 00000KT P6SM BKN060
     FM311700 20006KT P6SM BKN160
     FM312000 20007KT P6SM SCT040 SCT160 PROB30 3120/0102 4SM TSRA
      BKN040CB
     FM010300 00000KT P6SM BKN060=

USA.gov is the U.S. government's official web portal to all federal, state and local government web resources and services.